sensor_id;sensor_type;location;lat;lon;timestamp;P1;durP1;ratioP1;P2;durP2;ratioP2
5555;SDS011;2801;50.972;7.856;2022-07-12T00:01:51;6.47;;;4.40;;
5555;SDS011;2801;50.972;7.856;2022-07-12T00:04:19;4.88;;;4.07;;
5555;SDS011;2801;50.972;7.856;2022-07-12T00:06:46;9.93;;;4.10;;
5555;SDS011;2801;50.972;7.856;2022-07-12T00:09:13;5.18;;;4.45;;
5555;SDS011;2801;50.972;7.856;2022-07-12T00:11:40;6.68;;;4.40;;
5555;SDS011;2801;50.972;7.856;2022-07-12T00:14:08;5.03;;;4.00;;
5555;SDS011;2801;50.972;7.856;2022-07-12T00:16:38;7.35;;;4.90;;
5555;SDS011;2801;50.972;7.856;2022-07-12T00:19:05;6.32;;;4.43;;
5555;SDS011;2801;50.972;7.856;2022-07-12T00:21:32;7.57;;;5.38;;
5555;SDS011;2801;50.972;7.856;2022-07-12T00:23:59;6.90;;;5.30;;
5555;SDS011;2801;50.972;7.856;2022-07-12T00:26:26;11.23;;;6.35;;
5555;SDS011;2801;50.972;7.856;2022-07-12T00:28:53;20.85;;;7.32;;
5555;SDS011;2801;50.972;7.856;2022-07-12T00:31:20;12.70;;;6.72;;
5555;SDS011;2801;50.972;7.856;2022-07-12T00:33:47;15.90;;;7.97;;
5555;SDS011;2801;50.972;7.856;2022-07-12T00:36:14;15.63;;;7.60;;
5555;SDS011;2801;50.972;7.856;2022-07-12T00:38:41;16.95;;;7.35;;
5555;SDS011;2801;50.972;7.856;2022-07-12T00:41:08;11.43;;;6.57;;
5555;SDS011;2801;50.972;7.856;2022-07-12T00:43:35;13.90;;;7.53;;
5555;SDS011;2801;50.972;7.856;2022-07-12T00:46:03;16.17;;;8.65;;
5555;SDS011;2801;50.972;7.856;2022-07-12T00:48:31;12.50;;;7.63;;
5555;SDS011;2801;50.972;7.856;2022-07-12T00:50:59;17.25;;;7.07;;
5555;SDS011;2801;50.972;7.856;2022-07-12T00:53:27;11.35;;;5.80;;
5555;SDS011;2801;50.972;7.856;2022-07-12T00:55:58;10.45;;;6.55;;
5555;SDS011;2801;50.972;7.856;2022-07-12T00:58:25;10.15;;;5.60;;
5555;SDS011;2801;50.972;7.856;2022-07-12T01:00:57;12.60;;;6.32;;
5555;SDS011;2801;50.972;7.856;2022-07-12T01:03:25;11.88;;;5.45;;
5555;SDS011;2801;50.972;7.856;2022-07-12T01:05:54;10.90;;;6.72;;
5555;SDS011;2801;50.972;7.856;2022-07-12T01:08:21;16.65;;;6.40;;
5555;SDS011;2801;50.972;7.856;2022-07-12T01:10:50;30.70;;;5.80;;
5555;SDS011;2801;50.972;7.856;2022-07-12T01:13:17;7.70;;;4.50;;
5555;SDS011;2801;50.972;7.856;2022-07-12T01:15:45;5.63;;;4.18;;
5555;SDS011;2801;50.972;7.856;2022-07-12T01:18:14;5.95;;;4.75;;
5555;SDS011;2801;50.972;7.856;2022-07-12T01:20:44;5.85;;;4.65;;
5555;SDS011;2801;50.972;7.856;2022-07-12T01:23:12;8.00;;;4.68;;
5555;SDS011;2801;50.972;7.856;2022-07-12T01:25:40;6.15;;;4.32;;
5555;SDS011;2801;50.972;7.856;2022-07-12T01:28:07;9.73;;;5.32;;
5555;SDS011;2801;50.972;7.856;2022-07-12T01:30:34;6.93;;;4.22;;
5555;SDS011;2801;50.972;7.856;2022-07-12T01:33:01;6.75;;;4.30;;
5555;SDS011;2801;50.972;7.856;2022-07-12T01:35:29;6.22;;;4.82;;
5555;SDS011;2801;50.972;7.856;2022-07-12T01:37:58;8.07;;;5.38;;
5555;SDS011;2801;50.972;7.856;2022-07-12T01:40:25;7.50;;;5.45;;
5555;SDS011;2801;50.972;7.856;2022-07-12T01:42:52;10.48;;;5.13;;
5555;SDS011;2801;50.972;7.856;2022-07-12T01:45:20;21.08;;;6.53;;
5555;SDS011;2801;50.972;7.856;2022-07-12T01:47:47;9.60;;;5.50;;
5555;SDS011;2801;50.972;7.856;2022-07-12T01:50:15;9.02;;;5.45;;
5555;SDS011;2801;50.972;7.856;2022-07-12T01:52:42;7.65;;;5.65;;
5555;SDS011;2801;50.972;7.856;2022-07-12T01:55:10;7.72;;;5.55;;
5555;SDS011;2801;50.972;7.856;2022-07-12T01:57:40;9.90;;;5.90;;
5555;SDS011;2801;50.972;7.856;2022-07-12T02:00:09;7.78;;;5.32;;
5555;SDS011;2801;50.972;7.856;2022-07-12T02:02:39;8.02;;;4.30;;
5555;SDS011;2801;50.972;7.856;2022-07-12T02:05:06;6.88;;;4.03;;
5555;SDS011;2801;50.972;7.856;2022-07-12T02:07:34;6.35;;;4.28;;
5555;SDS011;2801;50.972;7.856;2022-07-12T02:10:03;4.07;;;3.65;;
5555;SDS011;2801;50.972;7.856;2022-07-12T02:12:34;9.35;;;4.18;;
5555;SDS011;2801;50.972;7.856;2022-07-12T02:15:04;7.18;;;4.38;;
5555;SDS011;2801;50.972;7.856;2022-07-12T02:17:35;7.82;;;4.50;;
5555;SDS011;2801;50.972;7.856;2022-07-12T02:20:02;7.53;;;4.43;;
5555;SDS011;2801;50.972;7.856;2022-07-12T02:22:31;9.70;;;5.30;;
5555;SDS011;2801;50.972;7.856;2022-07-12T02:24:58;12.05;;;5.80;;
5555;SDS011;2801;50.972;7.856;2022-07-12T02:27:25;7.40;;;4.35;;
5555;SDS011;2801;50.972;7.856;2022-07-12T02:29:53;9.65;;;4.97;;
5555;SDS011;2801;50.972;7.856;2022-07-12T02:32:19;7.03;;;4.90;;
5555;SDS011;2801;50.972;7.856;2022-07-12T02:34:46;7.45;;;4.88;;
5555;SDS011;2801;50.972;7.856;2022-07-12T02:37:13;5.88;;;4.40;;
5555;SDS011;2801;50.972;7.856;2022-07-12T02:39:40;7.25;;;4.45;;
5555;SDS011;2801;50.972;7.856;2022-07-12T02:42:07;8.00;;;4.47;;
5555;SDS011;2801;50.972;7.856;2022-07-12T02:44:34;8.35;;;5.18;;
5555;SDS011;2801;50.972;7.856;2022-07-12T02:47:01;6.93;;;4.88;;
5555;SDS011;2801;50.972;7.856;2022-07-12T02:49:28;10.25;;;5.30;;
5555;SDS011;2801;50.972;7.856;2022-07-12T02:51:55;7.15;;;4.70;;
5555;SDS011;2801;50.972;7.856;2022-07-12T02:54:22;5.90;;;4.50;;
5555;SDS011;2801;50.972;7.856;2022-07-12T02:56:49;7.22;;;4.70;;
5555;SDS011;2801;50.972;7.856;2022-07-12T02:59:16;6.55;;;4.97;;
5555;SDS011;2801;50.972;7.856;2022-07-12T03:01:43;9.07;;;4.32;;
5555;SDS011;2801;50.972;7.856;2022-07-12T03:04:10;6.78;;;4.90;;
5555;SDS011;2801;50.972;7.856;2022-07-12T03:06:37;7.57;;;4.50;;
5555;SDS011;2801;50.972;7.856;2022-07-12T03:09:04;6.32;;;4.53;;
5555;SDS011;2801;50.972;7.856;2022-07-12T03:11:31;11.25;;;5.15;;
5555;SDS011;2801;50.972;7.856;2022-07-12T03:13:59;6.35;;;3.70;;
5555;SDS011;2801;50.972;7.856;2022-07-12T03:16:26;5.97;;;3.60;;
5555;SDS011;2801;50.972;7.856;2022-07-12T03:18:53;8.90;;;4.32;;
5555;SDS011;2801;50.972;7.856;2022-07-12T03:21:20;5.95;;;4.20;;
5555;SDS011;2801;50.972;7.856;2022-07-12T03:23:46;6.05;;;3.75;;
5555;SDS011;2801;50.972;7.856;2022-07-12T03:26:13;9.82;;;3.97;;
5555;SDS011;2801;50.972;7.856;2022-07-12T03:28:40;12.60;;;4.22;;
5555;SDS011;2801;50.972;7.856;2022-07-12T03:31:07;4.80;;;3.50;;
5555;SDS011;2801;50.972;7.856;2022-07-12T03:33:34;4.38;;;3.17;;
5555;SDS011;2801;50.972;7.856;2022-07-12T03:36:02;7.55;;;3.65;;
5555;SDS011;2801;50.972;7.856;2022-07-12T03:38:29;5.57;;;3.63;;
5555;SDS011;2801;50.972;7.856;2022-07-12T03:40:56;6.65;;;3.70;;
5555;SDS011;2801;50.972;7.856;2022-07-12T03:43:23;5.22;;;3.28;;
5555;SDS011;2801;50.972;7.856;2022-07-12T03:45:50;7.20;;;3.50;;
5555;SDS011;2801;50.972;7.856;2022-07-12T03:48:17;14.93;;;4.38;;
5555;SDS011;2801;50.972;7.856;2022-07-12T03:50:44;5.78;;;4.50;;
5555;SDS011;2801;50.972;7.856;2022-07-12T03:53:12;5.78;;;4.43;;
5555;SDS011;2801;50.972;7.856;2022-07-12T03:55:39;8.43;;;4.43;;
5555;SDS011;2801;50.972;7.856;2022-07-12T03:58:06;6.95;;;4.45;;
5555;SDS011;2801;50.972;7.856;2022-07-12T04:00:33;6.25;;;4.50;;
5555;SDS011;2801;50.972;7.856;2022-07-12T04:03:05;6.80;;;4.40;;
5555;SDS011;2801;50.972;7.856;2022-07-12T04:05:32;5.82;;;4.70;;
5555;SDS011;2801;50.972;7.856;2022-07-12T04:07:59;7.88;;;4.38;;
5555;SDS011;2801;50.972;7.856;2022-07-12T04:10:28;7.43;;;5.15;;
5555;SDS011;2801;50.972;7.856;2022-07-12T04:12:55;7.45;;;4.68;;
5555;SDS011;2801;50.972;7.856;2022-07-12T04:15:22;8.60;;;5.35;;
5555;SDS011;2801;50.972;7.856;2022-07-12T04:17:49;7.85;;;5.15;;
5555;SDS011;2801;50.972;7.856;2022-07-12T04:20:16;7.53;;;4.90;;
5555;SDS011;2801;50.972;7.856;2022-07-12T04:22:43;4.82;;;4.03;;
5555;SDS011;2801;50.972;7.856;2022-07-12T04:25:10;5.38;;;4.55;;
5555;SDS011;2801;50.972;7.856;2022-07-12T04:27:38;6.38;;;4.50;;
5555;SDS011;2801;50.972;7.856;2022-07-12T04:30:05;7.22;;;5.03;;
5555;SDS011;2801;50.972;7.856;2022-07-12T04:32:33;6.72;;;4.25;;
5555;SDS011;2801;50.972;7.856;2022-07-12T04:35:00;5.30;;;4.15;;
5555;SDS011;2801;50.972;7.856;2022-07-12T04:37:27;8.93;;;4.80;;
5555;SDS011;2801;50.972;7.856;2022-07-12T04:39:54;5.05;;;4.15;;
5555;SDS011;2801;50.972;7.856;2022-07-12T04:42:21;5.72;;;4.65;;
5555;SDS011;2801;50.972;7.856;2022-07-12T04:44:48;6.80;;;4.53;;
5555;SDS011;2801;50.972;7.856;2022-07-12T04:47:14;4.75;;;4.25;;
5555;SDS011;2801;50.972;7.856;2022-07-12T04:49:41;6.10;;;4.72;;
5555;SDS011;2801;50.972;7.856;2022-07-12T04:52:08;5.22;;;4.25;;
5555;SDS011;2801;50.972;7.856;2022-07-12T04:54:35;7.65;;;4.68;;
5555;SDS011;2801;50.972;7.856;2022-07-12T04:57:02;6.18;;;4.90;;
5555;SDS011;2801;50.972;7.856;2022-07-12T04:59:30;8.85;;;5.00;;
5555;SDS011;2801;50.972;7.856;2022-07-12T05:01:56;6.22;;;4.47;;
5555;SDS011;2801;50.972;7.856;2022-07-12T05:04:23;7.40;;;4.93;;
5555;SDS011;2801;50.972;7.856;2022-07-12T05:06:50;6.60;;;5.10;;
5555;SDS011;2801;50.972;7.856;2022-07-12T05:09:18;5.18;;;4.68;;
5555;SDS011;2801;50.972;7.856;2022-07-12T05:11:45;8.10;;;5.35;;
5555;SDS011;2801;50.972;7.856;2022-07-12T05:14:13;7.22;;;5.28;;
5555;SDS011;2801;50.972;7.856;2022-07-12T05:16:40;5.88;;;4.50;;
5555;SDS011;2801;50.972;7.856;2022-07-12T05:19:07;6.75;;;4.20;;
5555;SDS011;2801;50.972;7.856;2022-07-12T05:21:34;7.68;;;4.55;;
5555;SDS011;2801;50.972;7.856;2022-07-12T05:24:02;6.60;;;4.50;;
5555;SDS011;2801;50.972;7.856;2022-07-12T05:26:30;6.00;;;4.70;;
5555;SDS011;2801;50.972;7.856;2022-07-12T05:28:57;5.88;;;4.72;;
5555;SDS011;2801;50.972;7.856;2022-07-12T05:31:24;5.47;;;4.35;;
5555;SDS011;2801;50.972;7.856;2022-07-12T05:33:51;5.93;;;4.57;;
5555;SDS011;2801;50.972;7.856;2022-07-12T05:36:19;6.78;;;4.82;;
5555;SDS011;2801;50.972;7.856;2022-07-12T05:38:47;5.68;;;4.28;;
5555;SDS011;2801;50.972;7.856;2022-07-12T05:41:14;5.03;;;4.30;;
5555;SDS011;2801;50.972;7.856;2022-07-12T05:43:41;5.43;;;4.30;;
5555;SDS011;2801;50.972;7.856;2022-07-12T05:46:07;5.70;;;4.43;;
5555;SDS011;2801;50.972;7.856;2022-07-12T05:48:36;4.82;;;4.07;;
5555;SDS011;2801;50.972;7.856;2022-07-12T05:51:03;6.22;;;4.43;;
5555;SDS011;2801;50.972;7.856;2022-07-12T05:53:49;5.63;;;4.35;;
5555;SDS011;2801;50.972;7.856;2022-07-12T05:56:16;7.53;;;4.10;;
5555;SDS011;2801;50.972;7.856;2022-07-12T05:58:43;4.32;;;3.90;;
5555;SDS011;2801;50.972;7.856;2022-07-12T06:01:10;6.50;;;3.80;;
5555;SDS011;2801;50.972;7.856;2022-07-12T06:03:37;4.85;;;4.10;;
5555;SDS011;2801;50.972;7.856;2022-07-12T06:06:04;5.03;;;4.05;;
5555;SDS011;2801;50.972;7.856;2022-07-12T06:08:31;4.97;;;3.78;;
5555;SDS011;2801;50.972;7.856;2022-07-12T06:10:58;4.90;;;4.40;;
5555;SDS011;2801;50.972;7.856;2022-07-12T06:13:24;5.57;;;4.18;;
5555;SDS011;2801;50.972;7.856;2022-07-12T06:15:51;5.20;;;4.43;;
5555;SDS011;2801;50.972;7.856;2022-07-12T06:18:18;5.45;;;4.88;;
5555;SDS011;2801;50.972;7.856;2022-07-12T06:20:45;5.13;;;4.00;;
5555;SDS011;2801;50.972;7.856;2022-07-12T06:23:12;4.50;;;3.83;;
5555;SDS011;2801;50.972;7.856;2022-07-12T06:25:40;4.43;;;4.03;;
5555;SDS011;2801;50.972;7.856;2022-07-12T06:28:09;4.60;;;4.15;;
5555;SDS011;2801;50.972;7.856;2022-07-12T06:30:36;5.15;;;4.28;;
5555;SDS011;2801;50.972;7.856;2022-07-12T06:33:03;5.57;;;4.50;;
5555;SDS011;2801;50.972;7.856;2022-07-12T06:35:30;5.82;;;5.03;;
5555;SDS011;2801;50.972;7.856;2022-07-12T06:37:58;6.25;;;4.35;;
5555;SDS011;2801;50.972;7.856;2022-07-12T06:40:24;5.53;;;4.63;;
5555;SDS011;2801;50.972;7.856;2022-07-12T06:42:51;7.22;;;4.45;;
5555;SDS011;2801;50.972;7.856;2022-07-12T06:45:19;5.30;;;4.40;;
5555;SDS011;2801;50.972;7.856;2022-07-12T06:47:46;5.78;;;4.80;;
5555;SDS011;2801;50.972;7.856;2022-07-12T06:50:13;4.57;;;4.15;;
5555;SDS011;2801;50.972;7.856;2022-07-12T06:52:40;6.68;;;4.70;;
5555;SDS011;2801;50.972;7.856;2022-07-12T06:55:07;5.97;;;5.20;;
5555;SDS011;2801;50.972;7.856;2022-07-12T06:57:35;5.95;;;5.05;;
5555;SDS011;2801;50.972;7.856;2022-07-12T07:00:04;5.05;;;4.40;;
5555;SDS011;2801;50.972;7.856;2022-07-12T07:02:32;8.68;;;5.20;;
5555;SDS011;2801;50.972;7.856;2022-07-12T07:04:59;6.10;;;5.47;;
5555;SDS011;2801;50.972;7.856;2022-07-12T07:07:26;5.80;;;5.13;;
5555;SDS011;2801;50.972;7.856;2022-07-12T07:09:53;6.15;;;4.88;;
5555;SDS011;2801;50.972;7.856;2022-07-12T07:12:20;4.97;;;4.47;;
5555;SDS011;2801;50.972;7.856;2022-07-12T07:14:47;5.00;;;4.35;;
5555;SDS011;2801;50.972;7.856;2022-07-12T07:17:18;4.45;;;4.05;;
5555;SDS011;2801;50.972;7.856;2022-07-12T07:19:45;4.75;;;4.00;;
5555;SDS011;2801;50.972;7.856;2022-07-12T07:22:14;4.43;;;4.03;;
5555;SDS011;2801;50.972;7.856;2022-07-12T07:24:41;4.28;;;3.60;;
5555;SDS011;2801;50.972;7.856;2022-07-12T07:27:08;4.53;;;3.30;;
5555;SDS011;2801;50.972;7.856;2022-07-12T07:29:35;5.38;;;3.70;;
5555;SDS011;2801;50.972;7.856;2022-07-12T07:32:21;3.92;;;3.53;;
5555;SDS011;2801;50.972;7.856;2022-07-12T07:34:48;6.05;;;3.00;;
5555;SDS011;2801;50.972;7.856;2022-07-12T07:37:15;4.05;;;3.38;;
5555;SDS011;2801;50.972;7.856;2022-07-12T07:39:42;3.55;;;3.22;;
5555;SDS011;2801;50.972;7.856;2022-07-12T07:42:09;3.78;;;3.33;;
5555;SDS011;2801;50.972;7.856;2022-07-12T07:44:36;4.47;;;3.40;;
5555;SDS011;2801;50.972;7.856;2022-07-12T07:47:23;2.85;;;2.50;;
5555;SDS011;2801;50.972;7.856;2022-07-12T07:49:50;2.90;;;2.60;;
5555;SDS011;2801;50.972;7.856;2022-07-12T07:52:21;2.85;;;2.53;;
5555;SDS011;2801;50.972;7.856;2022-07-12T07:54:48;4.53;;;2.67;;
5555;SDS011;2801;50.972;7.856;2022-07-12T07:57:15;3.13;;;2.47;;
5555;SDS011;2801;50.972;7.856;2022-07-12T07:59:42;2.80;;;2.40;;
5555;SDS011;2801;50.972;7.856;2022-07-12T08:02:10;2.10;;;1.90;;
5555;SDS011;2801;50.972;7.856;2022-07-12T08:04:38;5.43;;;2.60;;
5555;SDS011;2801;50.972;7.856;2022-07-12T08:07:06;2.25;;;1.98;;
5555;SDS011;2801;50.972;7.856;2022-07-12T08:09:33;2.92;;;2.03;;
5555;SDS011;2801;50.972;7.856;2022-07-12T08:12:00;2.58;;;2.38;;
5555;SDS011;2801;50.972;7.856;2022-07-12T08:14:26;2.22;;;2.03;;
5555;SDS011;2801;50.972;7.856;2022-07-12T08:16:53;1.50;;;1.40;;
5555;SDS011;2801;50.972;7.856;2022-07-12T08:19:20;1.65;;;1.55;;
5555;SDS011;2801;50.972;7.856;2022-07-12T08:21:48;1.75;;;1.10;;
5555;SDS011;2801;50.972;7.856;2022-07-12T08:24:14;1.65;;;0.90;;
5555;SDS011;2801;50.972;7.856;2022-07-12T08:26:41;1.30;;;1.20;;
5555;SDS011;2801;50.972;7.856;2022-07-12T08:29:08;2.08;;;1.20;;
5555;SDS011;2801;50.972;7.856;2022-07-12T08:31:35;1.33;;;1.23;;
5555;SDS011;2801;50.972;7.856;2022-07-12T08:34:02;2.75;;;0.85;;
5555;SDS011;2801;50.972;7.856;2022-07-12T08:36:30;1.33;;;0.80;;
5555;SDS011;2801;50.972;7.856;2022-07-12T08:38:59;0.90;;;0.90;;
5555;SDS011;2801;50.972;7.856;2022-07-12T08:41:26;1.30;;;1.13;;
5555;SDS011;2801;50.972;7.856;2022-07-12T08:43:53;1.20;;;1.00;;
5555;SDS011;2801;50.972;7.856;2022-07-12T08:46:20;1.00;;;0.90;;
5555;SDS011;2801;50.972;7.856;2022-07-12T08:48:47;1.80;;;0.80;;
5555;SDS011;2801;50.972;7.856;2022-07-12T08:51:18;1.45;;;0.70;;
5555;SDS011;2801;50.972;7.856;2022-07-12T08:53:47;0.98;;;0.80;;
5555;SDS011;2801;50.972;7.856;2022-07-12T08:56:31;2.05;;;0.60;;
5555;SDS011;2801;50.972;7.856;2022-07-12T09:06:48;0.80;;;0.80;;
5555;SDS011;2801;50.972;7.856;2022-07-12T09:09:25;0.93;;;0.77;;
5555;SDS011;2801;50.972;7.856;2022-07-12T09:11:58;0.57;;;0.57;;
5555;SDS011;2801;50.972;7.856;2022-07-12T09:14:25;0.85;;;0.68;;
5555;SDS011;2801;50.972;7.856;2022-07-12T09:17:03;1.85;;;0.80;;
5555;SDS011;2801;50.972;7.856;2022-07-12T09:19:36;0.88;;;0.70;;
5555;SDS011;2801;50.972;7.856;2022-07-12T09:22:03;0.80;;;0.80;;
5555;SDS011;2801;50.972;7.856;2022-07-12T09:24:43;0.73;;;0.70;;
5555;SDS011;2801;50.972;7.856;2022-07-12T09:27:10;0.60;;;0.60;;
5555;SDS011;2801;50.972;7.856;2022-07-12T09:29:49;1.15;;;0.60;;
5555;SDS011;2801;50.972;7.856;2022-07-12T09:32:25;2.38;;;0.52;;
5555;SDS011;2801;50.972;7.856;2022-07-12T09:35:10;1.30;;;0.50;;
5555;SDS011;2801;50.972;7.856;2022-07-12T09:38:07;0.98;;;0.65;;
5555;SDS011;2801;50.972;7.856;2022-07-12T09:40:36;0.50;;;0.50;;
5555;SDS011;2801;50.972;7.856;2022-07-12T09:43:03;0.82;;;0.65;;
5555;SDS011;2801;50.972;7.856;2022-07-12T09:45:31;0.60;;;0.60;;
5555;SDS011;2801;50.972;7.856;2022-07-12T09:47:59;0.93;;;0.57;;
5555;SDS011;2801;50.972;7.856;2022-07-12T09:50:28;0.45;;;0.45;;
5555;SDS011;2801;50.972;7.856;2022-07-12T09:52:58;0.60;;;0.50;;
5555;SDS011;2801;50.972;7.856;2022-07-12T09:55:30;0.70;;;0.50;;
5555;SDS011;2801;50.972;7.856;2022-07-12T09:58:01;1.70;;;0.70;;
5555;SDS011;2801;50.972;7.856;2022-07-12T10:00:29;1.40;;;0.50;;
5555;SDS011;2801;50.972;7.856;2022-07-12T10:02:57;0.70;;;0.60;;
5555;SDS011;2801;50.972;7.856;2022-07-12T10:05:25;1.15;;;0.50;;
5555;SDS011;2801;50.972;7.856;2022-07-12T10:07:54;0.75;;;0.55;;
5555;SDS011;2801;50.972;7.856;2022-07-12T10:10:22;1.45;;;0.43;;
5555;SDS011;2801;50.972;7.856;2022-07-12T10:12:51;1.30;;;0.60;;
5555;SDS011;2801;50.972;7.856;2022-07-12T10:15:20;0.45;;;0.45;;
5555;SDS011;2801;50.972;7.856;2022-07-12T10:17:53;0.65;;;0.50;;
5555;SDS011;2801;50.972;7.856;2022-07-12T10:20:26;0.40;;;0.40;;
5555;SDS011;2801;50.972;7.856;2022-07-12T10:22:54;0.52;;;0.52;;
5555;SDS011;2801;50.972;7.856;2022-07-12T10:25:42;0.80;;;0.50;;
5555;SDS011;2801;50.972;7.856;2022-07-12T10:28:09;0.57;;;0.57;;
5555;SDS011;2801;50.972;7.856;2022-07-12T10:30:44;0.75;;;0.50;;
5555;SDS011;2801;50.972;7.856;2022-07-12T10:33:23;0.52;;;0.52;;
5555;SDS011;2801;50.972;7.856;2022-07-12T10:36:04;0.88;;;0.60;;
5555;SDS011;2801;50.972;7.856;2022-07-12T10:38:40;0.70;;;0.47;;
5555;SDS011;2801;50.972;7.856;2022-07-12T10:41:17;0.60;;;0.60;;
5555;SDS011;2801;50.972;7.856;2022-07-12T10:43:56;0.70;;;0.50;;
5555;SDS011;2801;50.972;7.856;2022-07-12T10:46:30;0.88;;;0.80;;
5555;SDS011;2801;50.972;7.856;2022-07-12T10:57:08;0.60;;;0.50;;
5555;SDS011;2801;50.972;7.856;2022-07-12T10:59:36;0.40;;;0.40;;
5555;SDS011;2801;50.972;7.856;2022-07-12T11:02:04;0.85;;;0.60;;
5555;SDS011;2801;50.972;7.856;2022-07-12T11:04:48;0.50;;;0.50;;
5555;SDS011;2801;50.972;7.856;2022-07-12T11:07:19;0.50;;;0.50;;
5555;SDS011;2801;50.972;7.856;2022-07-12T11:09:50;0.98;;;0.68;;
5555;SDS011;2801;50.972;7.856;2022-07-12T11:12:18;0.80;;;0.70;;
5555;SDS011;2801;50.972;7.856;2022-07-12T11:14:46;0.50;;;0.40;;
5555;SDS011;2801;50.972;7.856;2022-07-12T11:17:13;0.40;;;0.40;;
5555;SDS011;2801;50.972;7.856;2022-07-12T11:19:40;0.75;;;0.57;;
5555;SDS011;2801;50.972;7.856;2022-07-12T11:22:07;0.70;;;0.52;;
5555;SDS011;2801;50.972;7.856;2022-07-12T11:24:34;1.15;;;0.70;;
5555;SDS011;2801;50.972;7.856;2022-07-12T11:27:03;0.57;;;0.57;;
5555;SDS011;2801;50.972;7.856;2022-07-12T11:29:32;0.50;;;0.50;;
5555;SDS011;2801;50.972;7.856;2022-07-12T11:31:59;1.15;;;0.50;;
5555;SDS011;2801;50.972;7.856;2022-07-12T11:34:36;0.70;;;0.52;;
5555;SDS011;2801;50.972;7.856;2022-07-12T11:37:06;0.50;;;0.50;;
5555;SDS011;2801;50.972;7.856;2022-07-12T11:39:37;0.57;;;0.50;;
5555;SDS011;2801;50.972;7.856;2022-07-12T11:42:07;0.88;;;0.70;;
5555;SDS011;2801;50.972;7.856;2022-07-12T11:44:49;1.42;;;0.60;;
5555;SDS011;2801;50.972;7.856;2022-07-12T11:47:18;0.50;;;0.50;;
5555;SDS011;2801;50.972;7.856;2022-07-12T11:49:52;1.25;;;0.57;;
5555;SDS011;2801;50.972;7.856;2022-07-12T11:52:21;1.10;;;0.70;;
5555;SDS011;2801;50.972;7.856;2022-07-12T11:54:51;1.63;;;0.40;;
5555;SDS011;2801;50.972;7.856;2022-07-12T11:57:20;0.60;;;0.52;;
5555;SDS011;2801;50.972;7.856;2022-07-12T11:59:51;0.60;;;0.60;;
5555;SDS011;2801;50.972;7.856;2022-07-12T12:02:18;1.85;;;0.60;;
5555;SDS011;2801;50.972;7.856;2022-07-12T12:04:53;1.02;;;0.70;;
5555;SDS011;2801;50.972;7.856;2022-07-12T12:07:23;0.50;;;0.47;;
5555;SDS011;2801;50.972;7.856;2022-07-12T12:12:24;0.43;;;0.43;;
5555;SDS011;2801;50.972;7.856;2022-07-12T12:14:51;0.60;;;0.47;;
5555;SDS011;2801;50.972;7.856;2022-07-12T12:17:18;1.30;;;0.47;;
5555;SDS011;2801;50.972;7.856;2022-07-12T12:19:45;1.38;;;0.30;;
5555;SDS011;2801;50.972;7.856;2022-07-12T12:25:00;0.30;;;0.30;;
5555;SDS011;2801;50.972;7.856;2022-07-12T12:27:30;0.50;;;0.50;;
5555;SDS011;2801;50.972;7.856;2022-07-12T12:30:17;0.50;;;0.50;;
5555;SDS011;2801;50.972;7.856;2022-07-12T12:35:18;1.05;;;0.47;;
5555;SDS011;2801;50.972;7.856;2022-07-12T12:37:56;1.75;;;0.40;;
5555;SDS011;2801;50.972;7.856;2022-07-12T12:40:50;0.35;;;0.35;;
5555;SDS011;2801;50.972;7.856;2022-07-12T12:43:18;1.27;;;0.40;;
5555;SDS011;2801;50.972;7.856;2022-07-12T12:45:50;0.65;;;0.38;;
5555;SDS011;2801;50.972;7.856;2022-07-12T12:48:23;0.30;;;0.30;;
5555;SDS011;2801;50.972;7.856;2022-07-12T12:53:35;2.38;;;0.50;;
5555;SDS011;2801;50.972;7.856;2022-07-12T12:56:07;0.55;;;0.50;;
5555;SDS011;2801;50.972;7.856;2022-07-12T12:58:37;0.85;;;0.43;;
5555;SDS011;2801;50.972;7.856;2022-07-12T13:01:06;0.47;;;0.47;;
5555;SDS011;2801;50.972;7.856;2022-07-12T13:03:34;1.25;;;0.28;;
5555;SDS011;2801;50.972;7.856;2022-07-12T13:06:02;1.27;;;0.50;;
5555;SDS011;2801;50.972;7.856;2022-07-12T13:08:31;0.50;;;0.30;;
5555;SDS011;2801;50.972;7.856;2022-07-12T13:10:59;0.32;;;0.32;;
5555;SDS011;2801;50.972;7.856;2022-07-12T13:13:44;0.40;;;0.40;;
5555;SDS011;2801;50.972;7.856;2022-07-12T13:16:11;0.50;;;0.50;;
5555;SDS011;2801;50.972;7.856;2022-07-12T13:18:38;0.50;;;0.50;;
5555;SDS011;2801;50.972;7.856;2022-07-12T13:21:06;0.85;;;0.50;;
5555;SDS011;2801;50.972;7.856;2022-07-12T13:23:33;0.40;;;0.40;;
5555;SDS011;2801;50.972;7.856;2022-07-12T13:26:00;0.65;;;0.50;;
5555;SDS011;2801;50.972;7.856;2022-07-12T13:28:27;0.40;;;0.40;;
5555;SDS011;2801;50.972;7.856;2022-07-12T13:30:54;0.70;;;0.60;;
5555;SDS011;2801;50.972;7.856;2022-07-12T13:33:21;1.80;;;0.60;;
5555;SDS011;2801;50.972;7.856;2022-07-12T13:35:48;0.50;;;0.50;;
5555;SDS011;2801;50.972;7.856;2022-07-12T13:38:15;1.35;;;0.52;;
5555;SDS011;2801;50.972;7.856;2022-07-12T13:40:42;0.52;;;0.52;;
5555;SDS011;2801;50.972;7.856;2022-07-12T13:43:10;1.38;;;0.55;;
5555;SDS011;2801;50.972;7.856;2022-07-12T13:45:37;1.10;;;0.38;;
5555;SDS011;2801;50.972;7.856;2022-07-12T13:48:04;0.70;;;0.60;;
5555;SDS011;2801;50.972;7.856;2022-07-12T13:50:31;1.73;;;0.60;;
5555;SDS011;2801;50.972;7.856;2022-07-12T13:52:59;0.45;;;0.45;;
5555;SDS011;2801;50.972;7.856;2022-07-12T13:55:26;1.52;;;0.40;;
5555;SDS011;2801;50.972;7.856;2022-07-12T13:57:55;1.05;;;0.50;;
5555;SDS011;2801;50.972;7.856;2022-07-12T14:00:22;2.88;;;0.70;;
5555;SDS011;2801;50.972;7.856;2022-07-12T14:02:49;0.60;;;0.50;;
5555;SDS011;2801;50.972;7.856;2022-07-12T14:05:20;1.23;;;0.80;;
5555;SDS011;2801;50.972;7.856;2022-07-12T14:07:48;1.05;;;0.70;;
5555;SDS011;2801;50.972;7.856;2022-07-12T14:10:16;1.23;;;0.55;;
5555;SDS011;2801;50.972;7.856;2022-07-12T14:12:44;0.60;;;0.60;;
5555;SDS011;2801;50.972;7.856;2022-07-12T14:15:11;1.38;;;0.52;;
5555;SDS011;2801;50.972;7.856;2022-07-12T14:17:42;2.22;;;0.80;;
5555;SDS011;2801;50.972;7.856;2022-07-12T14:20:13;0.80;;;0.70;;
5555;SDS011;2801;50.972;7.856;2022-07-12T14:22:43;0.57;;;0.57;;
5555;SDS011;2801;50.972;7.856;2022-07-12T14:25:12;0.75;;;0.60;;
5555;SDS011;2801;50.972;7.856;2022-07-12T14:27:41;1.20;;;0.65;;
5555;SDS011;2801;50.972;7.856;2022-07-12T14:30:12;1.55;;;0.70;;
5555;SDS011;2801;50.972;7.856;2022-07-12T14:32:40;1.83;;;0.75;;
5555;SDS011;2801;50.972;7.856;2022-07-12T14:35:08;0.80;;;0.80;;
5555;SDS011;2801;50.972;7.856;2022-07-12T14:37:36;1.15;;;0.70;;
5555;SDS011;2801;50.972;7.856;2022-07-12T14:40:04;1.42;;;0.70;;
5555;SDS011;2801;50.972;7.856;2022-07-12T14:42:32;0.90;;;0.60;;
5555;SDS011;2801;50.972;7.856;2022-07-12T14:44:59;1.15;;;0.70;;
5555;SDS011;2801;50.972;7.856;2022-07-12T14:47:26;1.48;;;0.85;;
5555;SDS011;2801;50.972;7.856;2022-07-12T14:49:53;1.20;;;0.73;;
5555;SDS011;2801;50.972;7.856;2022-07-12T14:52:21;1.67;;;0.70;;
5555;SDS011;2801;50.972;7.856;2022-07-12T14:54:48;2.80;;;0.73;;
5555;SDS011;2801;50.972;7.856;2022-07-12T14:57:17;1.23;;;0.68;;
5555;SDS011;2801;50.972;7.856;2022-07-12T14:59:44;1.60;;;0.68;;
5555;SDS011;2801;50.972;7.856;2022-07-12T15:02:11;1.00;;;0.82;;
5555;SDS011;2801;50.972;7.856;2022-07-12T15:04:38;1.48;;;0.70;;
5555;SDS011;2801;50.972;7.856;2022-07-12T15:07:05;2.08;;;0.75;;
5555;SDS011;2801;50.972;7.856;2022-07-12T15:09:33;1.70;;;0.77;;
5555;SDS011;2801;50.972;7.856;2022-07-12T15:12:00;0.95;;;0.70;;
5555;SDS011;2801;50.972;7.856;2022-07-12T15:14:27;0.75;;;0.70;;
5555;SDS011;2801;50.972;7.856;2022-07-12T15:17:01;1.88;;;0.60;;
5555;SDS011;2801;50.972;7.856;2022-07-12T15:19:28;4.55;;;0.80;;
5555;SDS011;2801;50.972;7.856;2022-07-12T15:21:55;0.70;;;0.70;;
5555;SDS011;2801;50.972;7.856;2022-07-12T15:24:23;1.77;;;0.70;;
5555;SDS011;2801;50.972;7.856;2022-07-12T15:26:49;0.88;;;0.82;;
5555;SDS011;2801;50.972;7.856;2022-07-12T15:29:16;1.13;;;0.80;;
5555;SDS011;2801;50.972;7.856;2022-07-12T15:31:43;1.83;;;0.70;;
5555;SDS011;2801;50.972;7.856;2022-07-12T15:34:10;1.80;;;0.80;;
5555;SDS011;2801;50.972;7.856;2022-07-12T15:36:38;1.23;;;0.70;;
5555;SDS011;2801;50.972;7.856;2022-07-12T15:39:05;2.17;;;0.70;;
5555;SDS011;2801;50.972;7.856;2022-07-12T15:41:33;0.80;;;0.60;;
5555;SDS011;2801;50.972;7.856;2022-07-12T15:44:01;0.60;;;0.60;;
5555;SDS011;2801;50.972;7.856;2022-07-12T15:46:30;2.58;;;0.70;;
5555;SDS011;2801;50.972;7.856;2022-07-12T15:48:57;0.63;;;0.63;;
5555;SDS011;2801;50.972;7.856;2022-07-12T15:51:24;3.17;;;0.50;;